Portada
METAR-TAF:

METAR-TAF

Aeroports :

Karachi, Pakistan

latitud: 24-54N, longitud: 067-08E, altitud: 21 m

Observació

L'informe es va fer fa 39 minuts, a les 07:55 UTC
Vent 12 kt del Oest
Temperatura 36°C
Humitat 18%
Pressió 1010 hPa
Visibilitat: 7000 m

METAR: OPKC 240755Z 26012KT 7000 NSC 36/08 Q1010 NOSIG

Hora: 13:34 (08:34 UTC)

Pronòstic

L'informe es va fer fa 4 hores i 34 minuts, a les 04:00 UTC
Pronòstic vàlid del 24 a les 06 UTC al 25 a les 12 UTC
Vent 5 kt del Oest amb ràfegues de 15 kt
Visibilitat: 6000 m
A partir de les 24 a les 1200 UTC
Vent 5 kt del Oest/Sud-Oest amb ràfegues de 15 kt
Visibilitat: 6000 m
Temporalment
l' 25 a les 00 UTC al 25 a les 04 UTC
Vent 6 kt del Oest
Visibilitat: 5000 m
calitja
A partir de les 25 a les 0600 UTC
Vent 5 kt del Oest/Sud-Oest amb ràfegues de 15 kt
Visibilitat: 6000 m

TAF: OPKC 240400Z 2406/2512 26005G15KT 6000 NSC FM241200 25005G15KT 6000 NSC TEMPO 2500/2504 27006KT 5000 HZ NSC FM250600 24005G15KT 6000 NSC

Observacions i pronòstics meteorològics de més de 4000 aeroports (METAR i TAF).

Les estacions disponibles són els punts grocs i vermells al mapa.

Posi el ratolí al punt desitjat per veure el nom de l'estació.

Feu clic per veure les observacions i els pronòstics meteorològics.

Per canviar el mapa: feu clic els botons verds amb una creu de color negre per apropar; al botó verd amb un guió per allunyar la imatge; o en les fletxes verdes per a mapes adjacents.


METAR-TAF: